Terminal Aerodrome Forecast
Issued by NWS Missoula, MT

Home | Current Version | Previous Version | Text Only | Print | Product List | Glossary On
Versions: 1 2 3 4 5 6 7 8 9 10 11 12 13 14 15 16 17 18
000
FTUS45 KMSO 141720
TAFGPI
TAF
KGPI 141720Z 1418/1518 VRB03KT P6SM OVC019
     FM142300 VRB03KT P6SM BKN025 BKN150
     FM150600 00000KT P6SM OVC015=

USA.gov is the U.S. government's official web portal to all federal, state and local government web resources and services.